Elk-makosieje

EPEK · Varmia y Masuria, Polonia

METAR pasados EPEK · Elk-makosieje

A continuación puedes ver los METAR de los últimos días. Selecciona un año para ver los METAR más antiguos, desde el año 2007 en adelante.

18 de julio de 2024

Hora Código Tiempo Temp. Visibilidad Cielo nuboso Viento METAR/SPECI
06:00
V
19 °C 10 km+ 6.600 ft 310° 310° 3 kt METAR UMMG 180400Z 31002MPS 9999 SCT033 BKN066 19/18 Q1018 NOSIG
05:00
V
19 °C 9 km 6.600 ft 310° 310° 5 kt METAR UMMG 180300Z 31003MPS 9000 -SHRA SCT033CB BKN066 19/18 Q1018 NOSIG

17 de julio de 2024

Hora Código Tiempo Temp. Visibilidad Cielo nuboso Viento METAR/SPECI
15:00
V
30 °C 10 km+ 10.000 ft 300° 300° 5 kt METAR UMMG 171300Z 30003MPS 9999 SCT036 BKN100 30/15 Q1016 NOSIG
14:00
V
29 °C 10 km+ 10.000 ft 300° 300° 7 - 13 kt METAR UMMG 171200Z 30004G07MPS 9999 SCT033 BKN100 29/16 Q1016 NOSIG
13:00
V
28 °C 10 km+ 10.000 ft 300° 300° 5 kt METAR UMMG 171100Z 30003MPS 9999 SCT030 BKN100 28/18 Q1016 NOSIG
12:00
V
27 °C 10 km+ 10.000 ft 300° 300° 5 - 11 kt METAR UMMG 171000Z 30003G06MPS 9999 SCT026 BKN100 27/17 Q1016 NOSIG
11:00
V
27 °C 10 km+ 10.000 ft 300° 300° 5 - 11 kt METAR UMMG 170900Z 30003G06MPS 9999 SCT023 BKN100 27/18 Q1016 NOSIG
10:00
M
25 °C 10 km+ 2.100 ft 300° 300° 7 - 13 kt METAR UMMG 170800Z 30004G07MPS 9999 BKN021 25/20 Q1016 NOSIG
09:00
M
24 °C 10 km+ 1.600 ft 260° 260° 5 kt METAR UMMG 170700Z 26003MPS 9999 BKN016 24/20 Q1016 NOSIG
08:00
M
22 °C 10 km+ 1.500 ft 260° 260° 5 kt METAR UMMG 170600Z 26003MPS 9999 BKN015 BKN017 22/19 Q1015 NOSIG
07:00
M
21 °C 9 km 1.000 ft 220° 220° 5 kt METAR UMMG 170500Z 22003MPS 9000 BKN010 BKN066 21/20 Q1015 NOSIG
06:00
M
21 °C 9 km 2.300 ft 230° 230° 5 kt METAR UMMG 170400Z 23003MPS 9000 BKN023 BKN066 21/20 Q1015 NOSIG
05:00
V
20 °C 8 km 6.600 ft 240° 240° 5 kt METAR UMMG 170300Z 24003MPS 8000 SCT026 BKN066 20/19 Q1014 NOSIG

16 de julio de 2024

Hora Código Tiempo Temp. Visibilidad Cielo nuboso Viento METAR/SPECI
15:00
V
31 °C 10 km+ 4.000 ft 150° 150° 9 - 15 kt METAR UMMG 161300Z 15005G08MPS 9999 BKN040 31/16 Q1014 NOSIG
14:00
V
30 °C 10 km+ 4.000 ft 140° 140° 9 - 15 kt METAR UMMG 161200Z 14005G08MPS 9999 BKN040 30/16 Q1014 NOSIG
13:00
V
30 °C 10 km+ 3.300 ft 140° 140° 11 - 17 kt METAR UMMG 161100Z 14006G09MPS 9999 BKN033 30/17 Q1015 NOSIG
12:00
V
29 °C 10 km+ 3.300 ft 130° 130° 9 - 15 kt METAR UMMG 161000Z 13005G08MPS 9999 BKN033 29/18 Q1015 NOSIG
11:00
M
28 °C 10 km+ 3.000 ft 140° 140° 5 - 11 kt METAR UMMG 160900Z 14003G06MPS 9999 BKN030 28/18 Q1016 NOSIG
10:00
V
27 °C 10 km+ - 130° 130° 7 kt METAR UMMG 160800Z 13004MPS 9999 FEW026 27/19 Q1016 NOSIG
09:00
V
26 °C 10 km+ - 140° 140° 5 kt METAR UMMG 160700Z 14003MPS CAVOK 26/19 Q1016 NOSIG
08:00
V
23 °C 10 km+ - 140° 140° 3 kt METAR UMMG 160600Z 14002MPS CAVOK 23/19 Q1016 NOSIG
07:00
V
21 °C 10 km+ - 120° 120° 3 kt METAR UMMG 160500Z 12002MPS CAVOK 21/18 Q1015 NOSIG
06:00
V
19 °C 9 km - Var Var 1 kt METAR UMMG 160400Z VRB01MPS 9000 NSC 19/18 Q1015 NOSIG
05:00
V
18 °C 8 km - Var Var 3 kt METAR UMMG 160300Z VRB02MPS 8000 NSC 18/17 Q1015 NOSIG

15 de julio de 2024

Hora Código Tiempo Temp. Visibilidad Cielo nuboso Viento METAR/SPECI
15:00
V
26 °C 10 km+ 3.700 ft 040° 040° 3 kt METAR UMMG 151300Z 04002MPS 9999 BKN037 BKN066 26/16 Q1015 NOSIG
14:00
V
26 °C 10 km+ 3.500 ft Var Var 1 kt METAR UMMG 151200Z VRB01MPS 9999 BKN035 BKN066 26/17 Q1015 NOSIG
13:00
V
25 °C 10 km+ 6.600 ft Var Var 1 kt METAR UMMG 151100Z VRB01MPS 9999 SCT033 BKN066 25/16 Q1015 NOSIG
12:00
V
24 °C 10 km+ 6.600 ft Var Var 1 kt METAR UMMG 151000Z VRB01MPS 9999 SCT030 BKN066 24/16 Q1015 NOSIG
11:00
V
24 °C 10 km+ 4.500 ft Var Var 1 kt METAR UMMG 150900Z VRB01MPS 9999 BKN045 24/16 Q1015 NOSIG
10:00
V
23 °C 10 km+ 4.500 ft 050° 050° 3 kt METAR UMMG 150800Z 05002MPS 9999 BKN045 23/16 Q1015 NOSIG
09:00
V
20 °C 10 km+ 4.500 ft 050° 050° 3 kt METAR UMMG 150700Z 05002MPS 9999 BKN045 20/16 Q1016 NOSIG
08:00
V
18 °C 10 km+ 4.000 ft 020° 020° 3 kt METAR UMMG 150600Z 02002MPS 9999 BKN040 18/16 Q1016 NOSIG
Cambiar esta información